Time;durP1;ratioP1;P1;durP2;ratioP2;P2;SDS_P1;SDS_P2;PMS_P1;PMS_P2;Temp;Humidity;BMP_temperature;BMP_pressure;BME280_temperature;BME280_humidity;BME280_pressure;Samples;Min_cycle;Max_cycle;Signal;HPM_P1;HPM_P2
2022/08/03 00:00:41;;;;;;;;;;;19.90;99.90;;;;;;5104273;28;20288;-75
2022/08/03 00:03:08;;;;;;;;;;;19.80;99.90;;;;;;5103949;28;19926;-75
2022/08/03 00:05:35;;;;;;;;;;;19.80;99.90;;;;;;5103889;28;19988;-75
2022/08/03 00:08:03;;;;;;;;;;;19.70;99.90;;;;;;5103981;28;19942;-75
2022/08/03 00:10:30;;;;;;;;;;;19.70;99.90;;;;;;5103588;28;19959;-75
2022/08/03 00:12:56;;;;;;;;;;;19.70;99.90;;;;;;5103798;28;19920;-75
2022/08/03 00:15:23;;;;;;;;;;;19.60;99.90;;;;;;5103857;28;19987;-75
2022/08/03 00:17:49;;;;;;;;;;;19.70;99.90;;;;;;5103941;28;19920;-75
2022/08/03 00:20:16;;;;;;;;;;;19.60;99.90;;;;;;5103771;28;19927;-75
2022/08/03 00:22:43;;;;;;;;;;;19.60;99.90;;;;;;5103578;28;20259;-75
2022/08/03 00:25:11;;;;;;;;;;;19.60;99.90;;;;;;5103135;28;19920;-74
2022/08/03 00:27:37;;;;;;;;;;;19.60;99.90;;;;;;5103877;28;19956;-74
2022/08/03 00:30:04;;;;;;;;;;;19.60;99.90;;;;;;5103781;28;19926;-75
2022/08/03 00:32:31;;;;;;;;;;;19.60;99.90;;;;;;5103746;28;19987;-75
2022/08/03 00:34:58;;;;;;;;;;;19.50;99.90;;;;;;5103395;28;20148;-75
2022/08/03 00:37:24;;;;;;;;;;;19.40;99.90;;;;;;5103544;28;19927;-75
2022/08/03 00:39:51;;;;;;;;;;;19.40;99.90;;;;;;5103808;28;19919;-73
2022/08/03 00:42:19;;;;;;;;;;;19.40;99.90;;;;;;5103763;28;20041;-75
2022/08/03 00:44:45;;;;;;;;;;;19.30;99.90;;;;;;5103297;28;19936;-75
2022/08/03 00:47:12;;;;;;;;;;;19.20;99.90;;;;;;5103553;28;19951;-75
2022/08/03 00:49:39;;;;;;;;;;;19.20;99.90;;;;;;5103347;28;20176;-75
2022/08/03 00:52:06;;;;;;;;;;;19.10;99.90;;;;;;5103763;28;19920;-75
2022/08/03 00:54:33;;;;;;;;;;;19.10;99.90;;;;;;5103527;28;20139;-74
2022/08/03 00:57:00;;;;;;;;;;;19.00;99.90;;;;;;5103851;28;19992;-75
2022/08/03 00:59:29;;;;;;;;;;;19.00;99.90;;;;;;5103571;28;20262;-74
2022/08/03 01:01:55;;;;;;;;;;;19.00;99.90;;;;;;5103358;28;20008;-74
2022/08/03 01:04:22;;;;;;;;;;;18.90;99.90;;;;;;5103235;28;19983;-74
2022/08/03 01:06:50;;;;;;;;;;;18.80;99.90;;;;;;5103470;28;19948;-75
2022/08/03 01:09:32;;;;;;;;;;;18.70;99.90;;;;;;5103391;28;19991;-74
2022/08/03 01:12:01;;;;;;;;;;;18.70;99.90;;;;;;5103364;28;19920;-73
2022/08/03 01:14:32;;;;;;;;;;;18.70;99.90;;;;;;5103337;28;19987;-74
2022/08/03 01:17:01;;;;;;;;;;;18.70;99.90;;;;;;5103497;28;19995;-74
2022/08/03 01:19:36;;;;;;;;;;;18.60;99.90;;;;;;5103435;28;20224;-74
2022/08/03 01:22:10;;;;;;;;;;;18.70;99.90;;;;;;5107445;28;19951;-74
2022/08/03 01:24:43;;;;;;;;;;;18.70;99.90;;;;;;5105901;28;20198;-74
2022/08/03 01:27:12;;;;;;;;;;;18.60;99.90;;;;;;5107230;28;19987;-74
2022/08/03 01:29:58;;;;;;;;;;;18.60;99.90;;;;;;5107123;28;19987;-74
2022/08/03 01:32:31;;;;;;;;;;;18.60;99.90;;;;;;5106977;28;19920;-74
2022/08/03 01:35:00;;;;;;;;;;;18.60;99.90;;;;;;5106716;28;19965;-74
2022/08/03 01:37:31;;;;;;;;;;;18.50;99.90;;;;;;5106913;28;19990;-74
2022/08/03 01:40:00;;;;;;;;;;;18.40;99.90;;;;;;5106998;28;19920;-74
2022/08/03 01:42:29;;;;;;;;;;;18.40;99.90;;;;;;5106939;28;19995;-74
2022/08/03 01:44:57;;;;;;;;;;;18.40;99.90;;;;;;5106571;28;20168;-74
2022/08/03 01:47:24;;;;;;;;;;;18.30;99.90;;;;;;5106677;28;19920;-74
2022/08/03 01:49:52;;;;;;;;;;;18.30;99.90;;;;;;5106003;28;19987;-74
2022/08/03 01:52:20;;;;;;;;;;;18.30;99.90;;;;;;5106935;28;19951;-74
2022/08/03 01:54:48;;;;;;;;;;;18.10;99.90;;;;;;5106204;28;19987;-74
2022/08/03 01:57:16;;;;;;;;;;;18.10;99.90;;;;;;5106613;28;19994;-74
2022/08/03 01:59:43;;;;;;;;;;;18.00;99.90;;;;;;5106561;28;19991;-74
2022/08/03 02:02:12;;;;;;;;;;;18.00;99.90;;;;;;5106438;28;19987;-74
2022/08/03 02:04:39;;;;;;;;;;;18.00;99.90;;;;;;5106272;28;20109;-75
2022/08/03 02:07:07;;;;;;;;;;;17.90;99.90;;;;;;5106683;28;19920;-76
2022/08/03 02:09:36;;;;;;;;;;;17.80;99.90;;;;;;5106448;28;19955;-74
2022/08/03 02:12:04;;;;;;;;;;;17.80;99.90;;;;;;5106279;28;19991;-74
2022/08/03 02:14:31;;;;;;;;;;;17.70;99.90;;;;;;5106088;28;19924;-74
2022/08/03 02:16:58;;;;;;;;;;;17.70;99.90;;;;;;5106149;28;19995;-74
2022/08/03 02:19:25;;;;;;;;;;;17.60;99.90;;;;;;5106184;28;19920;-74
2022/08/03 02:21:53;;;;;;;;;;;17.60;99.90;;;;;;5106206;28;19920;-74
2022/08/03 02:24:21;;;;;;;;;;;17.60;99.90;;;;;;5106089;28;19927;-74
2022/08/03 02:26:48;;;;;;;;;;;17.60;99.90;;;;;;5106028;28;19983;-74
2022/08/03 02:29:18;;;;;;;;;;;17.60;99.90;;;;;;5105951;28;19982;-74
2022/08/03 02:31:46;;;;;;;;;;;17.60;99.90;;;;;;5105196;28;19987;-75
2022/08/03 02:34:14;;;;;;;;;;;17.50;99.90;;;;;;5105764;28;19951;-75
2022/08/03 02:36:42;;;;;;;;;;;17.60;99.90;;;;;;5105936;28;19982;-74
2022/08/03 02:39:10;;;;;;;;;;;17.50;99.90;;;;;;5105933;28;20108;-75
2022/08/03 02:41:43;;;;;;;;;;;17.50;99.90;;;;;;5105832;28;20111;-76
2022/08/03 02:44:10;;;;;;;;;;;17.50;99.90;;;;;;5105456;28;20262;-75
2022/08/03 02:46:38;;;;;;;;;;;17.40;99.90;;;;;;5105464;28;20275;-74
2022/08/03 02:49:06;;;;;;;;;;;17.40;99.90;;;;;;5105705;28;19926;-75
2022/08/03 02:51:35;;;;;;;;;;;17.30;99.90;;;;;;5104961;28;19979;-74
2022/08/03 02:54:02;;;;;;;;;;;17.20;99.90;;;;;;5105183;28;19920;-74
2022/08/03 02:56:29;;;;;;;;;;;17.20;99.90;;;;;;5105248;28;19991;-74
2022/08/03 02:58:59;;;;;;;;;;;17.20;99.90;;;;;;5105449;28;20275;-75
2022/08/03 03:01:27;;;;;;;;;;;17.10;99.90;;;;;;5105328;28;19983;-74
2022/08/03 03:03:55;;;;;;;;;;;17.10;99.90;;;;;;5105170;28;19926;-74
2022/08/03 03:06:22;;;;;;;;;;;17.10;99.90;;;;;;5105144;28;19983;-74
2022/08/03 03:08:49;;;;;;;;;;;17.10;99.90;;;;;;5105116;28;19988;-74
2022/08/03 03:11:18;;;;;;;;;;;17.00;99.90;;;;;;5105387;28;20200;-74
2022/08/03 03:13:46;;;;;;;;;;;17.00;99.90;;;;;;5104811;28;20207;-74
2022/08/03 03:16:14;;;;;;;;;;;17.00;99.90;;;;;;5105078;28;19920;-74
2022/08/03 03:18:42;;;;;;;;;;;16.90;99.90;;;;;;5105074;28;19963;-74
2022/08/03 03:21:10;;;;;;;;;;;16.90;99.90;;;;;;5105082;28;20263;-73
2022/08/03 03:23:37;;;;;;;;;;;16.90;99.90;;;;;;5104592;28;20171;-74
2022/08/03 03:26:04;;;;;;;;;;;16.80;99.90;;;;;;5104787;28;19955;-73
2022/08/03 03:28:35;;;;;;;;;;;16.80;99.90;;;;;;5104853;28;19955;-73
2022/08/03 03:31:03;;;;;;;;;;;16.80;99.90;;;;;;5104830;28;20233;-73
2022/08/03 03:33:32;;;;;;;;;;;16.80;99.90;;;;;;5104604;28;19955;-74
2022/08/03 03:35:59;;;;;;;;;;;16.80;99.90;;;;;;5104568;28;19983;-74
2022/08/03 03:38:26;;;;;;;;;;;16.80;99.90;;;;;;5105082;28;19926;-74
2022/08/03 03:40:53;;;;;;;;;;;16.80;99.90;;;;;;5104806;28;19962;-74
2022/08/03 03:43:20;;;;;;;;;;;16.70;99.90;;;;;;5104081;28;19987;-74
2022/08/03 03:45:47;;;;;;;;;;;16.70;99.90;;;;;;5104510;28;19920;-74
2022/08/03 03:48:14;;;;;;;;;;;16.70;99.90;;;;;;5104509;28;19983;-74
2022/08/03 03:50:43;;;;;;;;;;;16.60;99.90;;;;;;5103458;28;19983;-74
2022/08/03 03:53:10;;;;;;;;;;;16.60;99.90;;;;;;5104332;28;19987;-74
2022/08/03 03:55:37;;;;;;;;;;;16.60;99.90;;;;;;5104288;28;19927;-74
2022/08/03 03:58:04;;;;;;;;;;;16.60;99.90;;;;;;5104178;28;19970;-74
2022/08/03 04:00:31;;;;;;;;;;;16.60;99.90;;;;;;5104402;28;19920;-74
2022/08/03 04:02:57;;;;;;;;;;;16.60;99.90;;;;;;5103958;28;20266;-74
2022/08/03 04:10:59;;;;;;;;;;;16.50;99.90;;;;;;5059658;28;19920;-74
2022/08/03 04:13:27;;;;;;;;;;;16.40;99.90;;;;;;5103824;28;19987;-72
2022/08/03 04:15:54;;;;;;;;;;;16.40;99.90;;;;;;5103905;28;19936;-74
2022/08/03 04:18:22;;;;;;;;;;;16.40;99.90;;;;;;5104225;28;19987;-73
2022/08/03 04:20:49;;;;;;;;;;;16.40;99.90;;;;;;5104092;28;19920;-74
2022/08/03 04:23:20;;;;;;;;;;;16.40;99.90;;;;;;5103575;28;19983;-74
2022/08/03 04:25:49;;;;;;;;;;;16.40;99.90;;;;;;5103806;28;19927;-73
2022/08/03 04:28:16;;;;;;;;;;;16.40;99.90;;;;;;5103689;28;20246;-74
2022/08/03 04:30:47;;;;;;;;;;;16.40;99.90;;;;;;5103818;28;19988;-73
2022/08/03 04:33:14;;;;;;;;;;;16.40;99.90;;;;;;5103398;28;19920;-73
2022/08/03 04:35:43;;;;;;;;;;;16.50;99.90;;;;;;5103756;28;19920;-74
2022/08/03 04:38:12;;;;;;;;;;;16.40;99.90;;;;;;5103785;28;19995;-74
2022/08/03 04:40:41;;;;;;;;;;;16.50;99.90;;;;;;5103687;28;20172;-74
2022/08/03 04:43:08;;;;;;;;;;;16.50;99.90;;;;;;5103486;28;19926;-73
2022/08/03 04:45:35;;;;;;;;;;;16.50;99.90;;;;;;5103795;28;20174;-73
2022/08/03 04:48:03;;;;;;;;;;;16.60;99.90;;;;;;5103658;28;19927;-73
2022/08/03 04:50:29;;;;;;;;;;;16.60;99.90;;;;;;5102792;28;19987;-73
2022/08/03 04:52:56;;;;;;;;;;;16.60;99.90;;;;;;5103383;28;19951;-74
2022/08/03 04:55:27;;;;;;;;;;;16.70;99.90;;;;;;5103093;28;19955;-73
2022/08/03 04:57:55;;;;;;;;;;;16.80;99.90;;;;;;5103247;28;19939;-73
2022/08/03 05:00:22;;;;;;;;;;;16.80;99.90;;;;;;5103615;28;19955;-73
2022/08/03 05:02:48;;;;;;;;;;;16.90;99.90;;;;;;5103129;28;20279;-74
2022/08/03 05:05:15;;;;;;;;;;;17.00;99.90;;;;;;5103914;28;19962;-74
2022/08/03 05:07:42;;;;;;;;;;;17.10;99.90;;;;;;5103457;28;19924;-73
2022/08/03 05:10:10;;;;;;;;;;;17.10;99.90;;;;;;5103617;28;19983;-74
2022/08/03 05:12:36;;;;;;;;;;;17.20;99.90;;;;;;5103366;28;19927;-73
2022/08/03 05:15:05;;;;;;;;;;;17.30;99.90;;;;;;5103256;28;19958;-74
2022/08/03 05:17:32;;;;;;;;;;;17.40;99.90;;;;;;5103213;28;19963;-74
2022/08/03 05:19:59;;;;;;;;;;;17.40;99.90;;;;;;5103293;28;19920;-74
2022/08/03 05:22:26;;;;;;;;;;;17.60;99.90;;;;;;5103322;28;20126;-74
2022/08/03 05:24:53;;;;;;;;;;;17.60;99.90;;;;;;5102136;28;20235;-73
2022/08/03 05:27:19;;;;;;;;;;;17.70;99.90;;;;;;5103358;28;20219;-74
2022/08/03 05:29:46;;;;;;;;;;;17.80;99.90;;;;;;5103195;28;20207;-73
2022/08/03 05:32:15;;;;;;;;;;;18.00;99.90;;;;;;5103077;28;19951;-74
2022/08/03 05:34:41;;;;;;;;;;;18.00;99.90;;;;;;5102675;28;20152;-74
2022/08/03 05:37:09;;;;;;;;;;;18.10;99.90;;;;;;5103014;28;19987;-74
2022/08/03 05:39:35;;;;;;;;;;;18.30;99.90;;;;;;5103365;28;19995;-73
2022/08/03 05:42:02;;;;;;;;;;;18.30;99.90;;;;;;5103073;28;19951;-74
2022/08/03 05:44:30;;;;;;;;;;;18.40;99.90;;;;;;5102827;28;19920;-73
2022/08/03 05:46:57;;;;;;;;;;;18.50;99.90;;;;;;5103008;28;19920;-73
2022/08/03 05:49:25;;;;;;;;;;;18.60;99.90;;;;;;5103318;28;20162;-73
2022/08/03 05:51:51;;;;;;;;;;;18.80;99.90;;;;;;5102077;28;20175;-73
2022/08/03 05:54:24;;;;;;;;;;;18.80;99.90;;;;;;5102715;28;19920;-73
2022/08/03 05:56:51;;;;;;;;;;;18.90;99.90;;;;;;5102956;28;19987;-73
2022/08/03 05:59:18;;;;;;;;;;;19.00;99.90;;;;;;5102851;28;19966;-74
2022/08/03 06:01:45;;;;;;;;;;;19.10;99.90;;;;;;5102916;28;20108;-73
2022/08/03 06:04:12;;;;;;;;;;;19.20;99.90;;;;;;5102528;28;19970;-73
2022/08/03 06:06:40;;;;;;;;;;;19.30;99.90;;;;;;5103226;28;19955;-74
2022/08/03 06:09:08;;;;;;;;;;;19.40;99.90;;;;;;5106668;28;19977;-74
2022/08/03 06:11:36;;;;;;;;;;;19.50;99.90;;;;;;5106473;28;19920;-74
2022/08/03 06:14:02;;;;;;;;;;;19.60;99.90;;;;;;5106008;28;19955;-73
2022/08/03 06:16:29;;;;;;;;;;;19.70;99.90;;;;;;5106294;28;19955;-74
2022/08/03 06:18:55;;;;;;;;;;;19.90;99.90;;;;;;5106370;28;19920;-74
2022/08/03 06:21:22;;;;;;;;;;;20.00;99.90;;;;;;5106217;28;19963;-74
2022/08/03 06:23:50;;;;;;;;;;;20.10;99.90;;;;;;5105456;28;19920;-74
2022/08/03 06:26:17;;;;;;;;;;;20.10;99.90;;;;;;5106079;28;19920;-74
2022/08/03 06:28:44;;;;;;;;;;;20.20;99.90;;;;;;5106039;28;19920;-75
2022/08/03 06:31:11;;;;;;;;;;;20.20;99.90;;;;;;5106559;28;19983;-74
2022/08/03 06:33:37;;;;;;;;;;;20.30;99.90;;;;;;5106019;28;19951;-74
2022/08/03 06:36:04;;;;;;;;;;;20.40;99.90;;;;;;5106105;28;19975;-74
2022/08/03 06:38:31;;;;;;;;;;;20.60;99.90;;;;;;5105977;28;19983;-74
2022/08/03 06:40:59;;;;;;;;;;;20.70;99.90;;;;;;5106041;28;20102;-74
2022/08/03 06:43:26;;;;;;;;;;;20.90;99.90;;;;;;5105604;28;19987;-74
2022/08/03 06:45:52;;;;;;;;;;;21.10;99.90;;;;;;5105886;28;19994;-73
2022/08/03 06:48:19;;;;;;;;;;;21.30;99.90;;;;;;5106054;28;20158;-74
2022/08/03 06:50:46;;;;;;;;;;;21.50;99.90;;;;;;5105126;28;19920;-74
2022/08/03 06:53:12;;;;;;;;;;;21.60;99.90;;;;;;5105492;28;19920;-74
2022/08/03 06:55:41;;;;;;;;;;;21.80;99.90;;;;;;5105102;28;20142;-75
2022/08/03 06:58:09;;;;;;;;;;;21.90;99.90;;;;;;5105498;28;19990;-75
2022/08/03 07:00:35;;;;;;;;;;;22.10;99.90;;;;;;5105762;28;19963;-75
2022/08/03 07:03:02;;;;;;;;;;;22.10;99.90;;;;;;5105167;28;19927;-75
2022/08/03 07:05:29;;;;;;;;;;;22.20;99.90;;;;;;5105355;28;19927;-74
2022/08/03 07:07:57;;;;;;;;;;;22.40;99.90;;;;;;5105481;28;19920;-75
2022/08/03 07:10:24;;;;;;;;;;;22.50;99.90;;;;;;5105215;28;19967;-75
2022/08/03 07:12:51;;;;;;;;;;;22.60;99.90;;;;;;5104786;28;19927;-75
2022/08/03 07:15:19;;;;;;;;;;;22.60;99.90;;;;;;5105184;28;19924;-75
2022/08/03 07:17:46;;;;;;;;;;;22.80;99.90;;;;;;5104744;28;19950;-75
2022/08/03 07:20:14;;;;;;;;;;;22.90;99.90;;;;;;5105318;28;19927;-75
2022/08/03 07:22:40;;;;;;;;;;;23.10;99.90;;;;;;5105438;28;19955;-74
2022/08/03 07:25:07;;;;;;;;;;;23.20;99.90;;;;;;5104283;28;19955;-74
2022/08/03 07:27:34;;;;;;;;;;;23.40;99.90;;;;;;5105249;28;19975;-75
2022/08/03 07:30:01;;;;;;;;;;;23.60;99.90;;;;;;5105316;28;20115;-74
2022/08/03 07:32:30;;;;;;;;;;;23.60;99.90;;;;;;5104993;28;19920;-74
2022/08/03 07:34:56;;;;;;;;;;;23.80;99.90;;;;;;5104838;28;19987;-75
2022/08/03 07:37:23;;;;;;;;;;;23.90;99.90;;;;;;5104967;28;19987;-75
2022/08/03 07:39:50;;;;;;;;;;;24.00;99.90;;;;;;5104752;28;19966;-74
2022/08/03 07:42:16;;;;;;;;;;;24.10;99.90;;;;;;5104870;28;19959;-75
2022/08/03 07:44:43;;;;;;;;;;;24.20;99.90;;;;;;5104557;28;19919;-74
2022/08/03 07:47:09;;;;;;;;;;;24.40;99.90;;;;;;5104618;28;19991;-74
2022/08/03 07:49:40;;;;;;;;;;;24.50;99.90;;;;;;5104599;28;19963;-75
2022/08/03 07:54:51;;;;;;;;;;;24.80;99.90;;;;;;5104031;28;19923;-72
2022/08/03 07:57:18;;;;;;;;;;;25.00;99.90;;;;;;5104545;28;19951;-73
2022/08/03 07:59:45;;;;;;;;;;;25.10;99.90;;;;;;5104322;28;20229;-73
2022/08/03 08:02:12;;;;;;;;;;;25.20;99.90;;;;;;5104229;28;19920;-72
2022/08/03 08:04:40;;;;;;;;;;;25.30;99.90;;;;;;5103936;28;20122;-72
2022/08/03 08:07:06;;;;;;;;;;;25.40;99.90;;;;;;5104254;28;19920;-71
2022/08/03 08:09:34;;;;;;;;;;;25.50;99.90;;;;;;5104475;28;19923;-75
2022/08/03 08:12:00;;;;;;;;;;;25.70;99.90;;;;;;5105406;28;20115;-72
2022/08/03 08:14:27;;;;;;;;;;;25.80;99.90;;;;;;5103931;28;19924;-73
2022/08/03 08:16:54;;;;;;;;;;;25.90;99.90;;;;;;5104133;28;19920;-70
2022/08/03 08:19:20;;;;;;;;;;;25.90;99.90;;;;;;5103972;28;19959;-70
2022/08/03 08:21:49;;;;;;;;;;;25.90;99.90;;;;;;5104434;28;19927;-70
2022/08/03 08:24:15;;;;;;;;;;;26.10;99.90;;;;;;5102888;28;20154;-70
2022/08/03 08:26:42;;;;;;;;;;;26.20;99.90;;;;;;5104061;28;19986;-71
2022/08/03 08:29:09;;;;;;;;;;;26.20;99.90;;;;;;5103255;28;19920;-71
2022/08/03 08:31:35;;;;;;;;;;;26.30;99.90;;;;;;5103580;28;19927;-71
2022/08/03 08:34:04;;;;;;;;;;;26.40;99.90;;;;;;5103361;28;19975;-72
2022/08/03 08:36:32;;;;;;;;;;;26.60;99.90;;;;;;5104356;28;19926;-72
2022/08/03 08:39:00;;;;;;;;;;;26.70;99.90;;;;;;5103477;28;20216;-72
2022/08/03 08:41:27;;;;;;;;;;;26.80;99.90;;;;;;5103888;28;19920;-72
2022/08/03 08:43:53;;;;;;;;;;;26.80;99.90;;;;;;5102970;28;19920;-71
2022/08/03 08:46:21;;;;;;;;;;;26.80;99.90;;;;;;5102694;28;20209;-72
2022/08/03 08:48:48;;;;;;;;;;;26.80;99.90;;;;;;5103921;28;19962;-71
2022/08/03 08:51:15;;;;;;;;;;;26.80;99.90;;;;;;5102801;28;19987;-71
2022/08/03 08:53:45;;;;;;;;;;;26.80;99.90;;;;;;5103427;28;19983;-72
2022/08/03 08:56:15;;;;;;;;;;;26.80;99.90;;;;;;5103251;28;20266;-71
2022/08/03 08:58:44;;;;;;;;;;;26.90;99.90;;;;;;5104094;28;19920;-71
2022/08/03 09:01:10;;;;;;;;;;;26.90;99.90;;;;;;5103535;28;19983;-71
2022/08/03 09:03:37;;;;;;;;;;;27.00;99.90;;;;;;5103461;28;19979;-71
2022/08/03 09:06:04;;;;;;;;;;;27.00;99.90;;;;;;5103604;28;20176;-70
2022/08/03 09:08:31;;;;;;;;;;;27.10;99.90;;;;;;5103759;28;19926;-71
2022/08/03 09:10:58;;;;;;;;;;;27.20;99.90;;;;;;5103481;28;20119;-71
2022/08/03 09:13:27;;;;;;;;;;;27.30;99.90;;;;;;5103757;28;19920;-71
2022/08/03 09:16:10;;;;;;;;;;;27.30;99.90;;;;;;5103298;28;20261;-71
2022/08/03 09:18:37;;;;;;;;;;;27.40;99.40;;;;;;5103413;28;19928;-72
2022/08/03 09:21:14;;;;;;;;;;;27.50;99.00;;;;;;5103227;28;19979;-71
2022/08/03 09:23:45;;;;;;;;;;;27.50;99.10;;;;;;5102325;28;19962;-72
2022/08/03 09:26:11;;;;;;;;;;;27.50;98.80;;;;;;5103098;28;19934;-71
2022/08/03 09:28:39;;;;;;;;;;;27.60;99.20;;;;;;5103505;28;19966;-72
2022/08/03 09:31:07;;;;;;;;;;;27.70;98.70;;;;;;5103244;28;20007;-72
2022/08/03 09:33:46;;;;;;;;;;;27.70;98.70;;;;;;5102953;28;19970;-71
2022/08/03 09:36:33;;;;;;;;;;;27.70;98.80;;;;;;5103101;28;19951;-70
2022/08/03 09:39:04;;;;;;;;;;;27.80;97.90;;;;;;5103340;28;19920;-73
2022/08/03 09:41:31;;;;;;;;;;;27.80;97.60;;;;;;5104633;28;19920;-72
2022/08/03 09:43:59;;;;;;;;;;;27.90;98.10;;;;;;5105987;28;19920;-73
2022/08/03 09:46:30;;;;;;;;;;;27.90;96.80;;;;;;5106204;28;20239;-72
2022/08/03 09:49:11;;;;;;;;;;;27.90;97.00;;;;;;5107057;28;19920;-72
2022/08/03 09:51:38;;;;;;;;;;;28.00;97.00;;;;;;5104545;28;19920;-71
2022/08/03 09:54:05;;;;;;;;;;;28.10;96.80;;;;;;5106902;28;19987;-70
2022/08/03 09:56:42;;;;;;;;;;;28.20;96.80;;;;;;5106987;28;19927;-73
2022/08/03 09:59:10;;;;;;;;;;;28.30;97.60;;;;;;5106750;28;19942;-73
2022/08/03 10:01:40;;;;;;;;;;;28.60;96.20;;;;;;5106866;28;19928;-73
2022/08/03 10:04:11;;;;;;;;;;;28.70;95.70;;;;;;5106582;28;19928;-73
2022/08/03 10:06:38;;;;;;;;;;;28.80;95.40;;;;;;5106726;28;19987;-72
2022/08/03 10:09:06;;;;;;;;;;;28.90;96.20;;;;;;5106764;28;19924;-72
2022/08/03 10:11:33;;;;;;;;;;;29.00;95.20;;;;;;5106638;28;19927;-72
2022/08/03 10:14:00;;;;;;;;;;;29.10;95.00;;;;;;5106151;28;19926;-72
2022/08/03 10:16:32;;;;;;;;;;;29.10;95.40;;;;;;5106884;28;19920;-72
2022/08/03 10:18:59;;;;;;;;;;;29.20;95.20;;;;;;5106509;28;20279;-73
2022/08/03 10:21:29;;;;;;;;;;;29.30;94.90;;;;;;5106521;28;19920;-72
2022/08/03 10:23:56;;;;;;;;;;;29.40;94.30;;;;;;5105294;28;19928;-73
2022/08/03 10:26:25;;;;;;;;;;;29.60;93.50;;;;;;5106068;28;19951;-72
2022/08/03 10:28:53;;;;;;;;;;;29.80;93.30;;;;;;5106681;28;19959;-72
2022/08/03 10:31:20;;;;;;;;;;;29.90;93.10;;;;;;5106718;28;19948;-73
2022/08/03 10:33:49;;;;;;;;;;;30.00;92.90;;;;;;5106049;28;19920;-73
2022/08/03 10:36:19;;;;;;;;;;;30.10;91.90;;;;;;5106377;28;19992;-73
2022/08/03 10:38:51;;;;;;;;;;;30.10;91.60;;;;;;5106049;28;19920;-72
2022/08/03 10:41:19;;;;;;;;;;;30.20;91.90;;;;;;5106047;28;19920;-73
2022/08/03 10:43:48;;;;;;;;;;;30.30;91.30;;;;;;5105740;28;20377;-73
2022/08/03 10:46:15;;;;;;;;;;;30.30;91.50;;;;;;5105735;28;19923;-73
2022/08/03 10:48:42;;;;;;;;;;;30.40;91.20;;;;;;5105709;28;19920;-73
2022/08/03 10:51:10;;;;;;;;;;;30.50;91.20;;;;;;5106185;28;19987;-73
2022/08/03 10:53:39;;;;;;;;;;;30.60;91.10;;;;;;5104573;28;19928;-72
2022/08/03 10:58:50;;;;;;;;;;;30.60;90.20;;;;;;5105626;28;19923;-71
2022/08/03 11:01:18;;;;;;;;;;;30.60;90.80;;;;;;5105665;28;19920;-71
2022/08/03 11:04:03;;;;;;;;;;;30.70;90.70;;;;;;5105065;28;19924;-72
2022/08/03 11:06:31;;;;;;;;;;;30.90;90.20;;;;;;5105543;28;19919;-73
2022/08/03 11:09:13;;;;;;;;;;;31.20;89.20;;;;;;5105461;28;19920;-73
2022/08/03 11:11:40;;;;;;;;;;;31.40;88.40;;;;;;5105396;28;19983;-72
2022/08/03 11:14:08;;;;;;;;;;;31.50;89.00;;;;;;5104829;28;19922;-71
2022/08/03 11:16:35;;;;;;;;;;;31.60;87.50;;;;;;5105051;28;19983;-72
2022/08/03 11:19:03;;;;;;;;;;;31.70;86.10;;;;;;5105234;28;19966;-72
2022/08/03 11:21:48;;;;;;;;;;;31.80;88.30;;;;;;5105289;28;19956;-72
2022/08/03 11:24:29;;;;;;;;;;;32.00;86.60;;;;;;5104705;28;19955;-72
2022/08/03 11:27:11;;;;;;;;;;;32.10;87.40;;;;;;5103955;28;19920;-72
2022/08/03 11:29:53;;;;;;;;;;;32.20;84.40;;;;;;5104421;28;19927;-72
2022/08/03 11:32:35;;;;;;;;;;;32.10;85.20;;;;;;5105240;28;20180;-72
2022/08/03 11:35:07;;;;;;;;;;;32.10;83.80;;;;;;5103778;28;19983;-72
2022/08/03 11:37:33;;;;;;;;;;;32.10;84.00;;;;;;5104998;28;19938;-72
2022/08/03 11:40:00;;;;;;;;;;;32.00;86.40;;;;;;5104836;28;19920;-72
2022/08/03 11:42:40;;;;;;;;;;;32.10;83.20;;;;;;5104748;28;20250;-72
2022/08/03 11:45:09;;;;;;;;;;;32.20;84.60;;;;;;5104758;28;19963;-72
2022/08/03 11:47:37;;;;;;;;;;;32.40;84.70;;;;;;5104626;28;19927;-71
2022/08/03 11:50:04;;;;;;;;;;;32.60;82.10;;;;;;5104535;28;19965;-72
2022/08/03 11:52:34;;;;;;;;;;;32.80;82.80;;;;;;5104806;28;19920;-72
2022/08/03 11:55:01;;;;;;;;;;;32.90;83.70;;;;;;5104227;28;20259;-73
2022/08/03 11:57:29;;;;;;;;;;;33.10;81.80;;;;;;5104407;28;19920;-73
2022/08/03 11:59:55;;;;;;;;;;;33.30;80.70;;;;;;5104307;28;19923;-73
2022/08/03 12:02:23;;;;;;;;;;;33.40;80.50;;;;;;5104239;28;19951;-72
2022/08/03 12:04:50;;;;;;;;;;;33.50;79.80;;;;;;5104300;28;19920;-73
2022/08/03 12:07:17;;;;;;;;;;;33.60;79.30;;;;;;5104454;28;19926;-73
2022/08/03 12:09:44;;;;;;;;;;;33.80;79.40;;;;;;5104102;28;19927;-73
2022/08/03 12:12:15;;;;;;;;;;;34.00;79.30;;;;;;5104202;28;19956;-73
2022/08/03 12:14:46;;;;;;;;;;;34.20;78.70;;;;;;5103758;28;19920;-72
2022/08/03 12:17:13;;;;;;;;;;;34.40;78.10;;;;;;5104307;28;19984;-72
2022/08/03 12:19:44;;;;;;;;;;;34.50;75.80;;;;;;5104114;28;20026;-73
2022/08/03 12:22:12;;;;;;;;;;;34.50;76.50;;;;;;5104101;28;19983;-72
2022/08/03 12:24:42;;;;;;;;;;;34.50;75.90;;;;;;5102619;28;19928;-73
2022/08/03 12:27:09;;;;;;;;;;;34.50;78.80;;;;;;5103942;28;19920;-73
2022/08/03 12:29:35;;;;;;;;;;;34.50;75.00;;;;;;5103746;28;19991;-73
2022/08/03 12:32:02;;;;;;;;;;;34.40;76.20;;;;;;5103758;28;20208;-73
2022/08/03 12:34:44;;;;;;;;;;;34.40;75.60;;;;;;5103651;28;19920;-73
2022/08/03 12:37:12;;;;;;;;;;;34.30;75.30;;;;;;5104192;28;19955;-72
2022/08/03 12:39:38;;;;;;;;;;;34.50;76.80;;;;;;5103704;28;19962;-73
2022/08/03 12:42:05;;;;;;;;;;;34.60;76.10;;;;;;5103740;28;19928;-73
2022/08/03 12:44:33;;;;;;;;;;;34.50;75.60;;;;;;5103516;28;19919;-72
2022/08/03 12:47:00;;;;;;;;;;;34.40;76.20;;;;;;5103761;28;19920;-72
2022/08/03 12:49:28;;;;;;;;;;;34.60;76.60;;;;;;5103763;28;19988;-73
2022/08/03 12:51:58;;;;;;;;;;;34.80;76.20;;;;;;5103561;28;19927;-73
2022/08/03 12:54:30;;;;;;;;;;;35.00;74.40;;;;;;5103085;28;19983;-74
2022/08/03 12:56:57;;;;;;;;;;;35.20;74.50;;;;;;5103933;28;19986;-72
2022/08/03 12:59:24;;;;;;;;;;;35.40;73.20;;;;;;5103415;28;20267;-73
2022/08/03 13:01:51;;;;;;;;;;;35.40;73.80;;;;;;5103539;28;19942;-73
2022/08/03 13:04:25;;;;;;;;;;;35.40;73.60;;;;;;5103064;28;20263;-72
2022/08/03 13:06:56;;;;;;;;;;;35.60;73.30;;;;;;5103296;28;19956;-71
2022/08/03 13:09:25;;;;;;;;;;;35.70;74.20;;;;;;5103357;28;19983;-72
2022/08/03 13:12:06;;;;;;;;;;;35.90;74.10;;;;;;5103502;28;19927;-72
2022/08/03 13:14:32;;;;;;;;;;;36.00;72.00;;;;;;5103068;28;19966;-71
2022/08/03 13:16:59;;;;;;;;;;;36.10;71.70;;;;;;5105755;28;19920;-73
2022/08/03 13:19:26;;;;;;;;;;;36.00;69.80;;;;;;5107345;28;19920;-73
2022/08/03 13:21:53;;;;;;;;;;;36.10;70.70;;;;;;5107470;28;19951;-72
2022/08/03 13:24:19;;;;;;;;;;;36.10;69.70;;;;;;5106079;28;19983;-73
2022/08/03 13:26:46;;;;;;;;;;;36.20;71.80;;;;;;5107308;28;19994;-72
2022/08/03 13:29:14;;;;;;;;;;;36.30;67.70;;;;;;5107248;28;19955;-72
2022/08/03 13:31:41;;;;;;;;;;;36.30;69.10;;;;;;5107097;28;19951;-72
2022/08/03 13:34:07;;;;;;;;;;;36.10;68.70;;;;;;5106844;28;19928;-72
2022/08/03 13:36:35;;;;;;;;;;;36.10;69.50;;;;;;5106911;28;19927;-72
2022/08/03 13:39:01;;;;;;;;;;;36.20;68.50;;;;;;5107375;28;20184;-72
2022/08/03 13:41:28;;;;;;;;;;;36.20;67.60;;;;;;5107005;28;19927;-72
2022/08/03 13:43:55;;;;;;;;;;;36.30;67.90;;;;;;5106710;28;19926;-72
2022/08/03 13:46:23;;;;;;;;;;;36.40;67.90;;;;;;5106684;28;19920;-73
2022/08/03 13:48:49;;;;;;;;;;;36.50;67.00;;;;;;5107222;28;19991;-73
2022/08/03 13:51:16;;;;;;;;;;;36.60;67.10;;;;;;5106765;28;20255;-72
2022/08/03 13:53:43;;;;;;;;;;;36.80;66.50;;;;;;5106691;28;19956;-72
2022/08/03 13:56:09;;;;;;;;;;;36.90;65.80;;;;;;5106944;28;19974;-73
2022/08/03 13:58:36;;;;;;;;;;;37.10;66.20;;;;;;5106766;28;20226;-73
2022/08/03 14:01:03;;;;;;;;;;;37.20;65.90;;;;;;5106600;28;20232;-73
2022/08/03 14:03:31;;;;;;;;;;;37.40;64.30;;;;;;5106550;28;19951;-72
2022/08/03 14:05:57;;;;;;;;;;;37.30;65.90;;;;;;5106574;28;20123;-72
2022/08/03 14:08:24;;;;;;;;;;;37.40;64.90;;;;;;5106489;28;20243;-73
2022/08/03 14:10:51;;;;;;;;;;;37.50;65.60;;;;;;5106252;28;20100;-72
2022/08/03 14:13:17;;;;;;;;;;;37.50;64.50;;;;;;5106036;28;19927;-73
2022/08/03 14:15:44;;;;;;;;;;;37.30;65.00;;;;;;5106102;28;19956;-73
2022/08/03 14:18:11;;;;;;;;;;;37.20;63.70;;;;;;5106403;28;20167;-73
2022/08/03 14:20:39;;;;;;;;;;;37.20;64.30;;;;;;5106261;28;20115;-73
2022/08/03 14:23:06;;;;;;;;;;;37.20;64.00;;;;;;5105863;28;19983;-73
2022/08/03 14:25:33;;;;;;;;;;;37.10;62.90;;;;;;5105220;28;19927;-73
2022/08/03 14:27:59;;;;;;;;;;;37.10;63.60;;;;;;5104828;28;19927;-73
2022/08/03 14:30:26;;;;;;;;;;;37.00;63.60;;;;;;5106208;28;19991;-73
2022/08/03 14:32:52;;;;;;;;;;;37.20;63.70;;;;;;5105901;28;19920;-73